Hlavní strana
METAR-TAF:

METAR-TAF

Letiště :

Logroño, Španělsko

zeměpisná šířka: 42-27N, zeměpisná délka: 002-20W, výška: 353 m

Aktuální stav počasí

Zpráva byla vytvořena před 37 minutami, v 04:00 UTC
Západní vítr 7 kt
Teplota 14°C
Vlhkost vzduchu 72%
Tlak 1029 hPa
Viditelnost 10 km a více
Žádná oblačnost pod 1500 m, nevyskytují se cumulonimby.

METAR: LELO 260400Z AUTO 27007KT CAVOK 14/09 Q1029

Čas: 06:37 (04:37 UTC)

Předpověď počasí

Zpráva byla vytvořena před 2 hodinami a 37 minutami, v 02:00 UTC
Předpověď platná od 26 v 04 UTC do 26 v 12 UTC
Západní vítr 6 kt
Viditelnost 10 km a více
Žádná oblačnost pod 1500 m, nevyskytují se cumulonimby.

TAF: LELO 260200Z 2604/2612 28006KT CAVOK

Stav a předpovědi počasí z více než 4 000 letišť (zprávy METAR a TAF).

Červené a žluté tečky na mapě představují dostupné meteorologické stanice.

Když kurzor umístíte na tečku, zobrazí se název stanice.

Pak kliknutím zobrazíte stav a předpověď počasí.

Chcete-li změnit mapu, kliknutím na zelené tlačítko se znaménkem +mapu přiblížíte, kliknutím na zelené tlačítko se znaménkem – mapu oddálíte a kliknutím na zelené šipky přejdete na sousední mapy.


METAR-TAF: